sensor_id;sensor_type;location;lat;lon;timestamp;temperature;humidity
31991;DHT22;18508;49.386;8.370;2022-10-26T00:02:18;12.80;99.90
31991;DHT22;18508;49.386;8.370;2022-10-26T00:04:49;12.40;99.90
31991;DHT22;18508;49.386;8.370;2022-10-26T00:07:28;12.00;99.90
31991;DHT22;18508;49.386;8.370;2022-10-26T00:09:58;12.40;99.90
31991;DHT22;18508;49.386;8.370;2022-10-26T00:12:27;12.60;99.90
31991;DHT22;18508;49.386;8.370;2022-10-26T00:14:58;12.40;99.90
31991;DHT22;18508;49.386;8.370;2022-10-26T00:17:34;12.50;99.90
31991;DHT22;18508;49.386;8.370;2022-10-26T00:20:07;12.50;99.90
31991;DHT22;18508;49.386;8.370;2022-10-26T00:22:41;10.10;99.90
31991;DHT22;18508;49.386;8.370;2022-10-26T00:25:15;12.50;99.90
31991;DHT22;18508;49.386;8.370;2022-10-26T00:30:29;12.80;99.90
31991;DHT22;18508;49.386;8.370;2022-10-26T00:33:00;12.70;99.90
31991;DHT22;18508;49.386;8.370;2022-10-26T00:35:32;12.40;99.90
31991;DHT22;18508;49.386;8.370;2022-10-26T00:38:15;12.40;99.90
31991;DHT22;18508;49.386;8.370;2022-10-26T00:41:06;12.30;99.90
31991;DHT22;18508;49.386;8.370;2022-10-26T00:43:37;12.40;99.90
31991;DHT22;18508;49.386;8.370;2022-10-26T00:46:11;12.40;99.90
31991;DHT22;18508;49.386;8.370;2022-10-26T00:48:44;12.40;99.90
31991;DHT22;18508;49.386;8.370;2022-10-26T00:51:24;12.40;99.90
31991;DHT22;18508;49.386;8.370;2022-10-26T00:53:55;12.20;99.90
31991;DHT22;18508;49.386;8.370;2022-10-26T00:56:29;11.70;99.90
31991;DHT22;18508;49.386;8.370;2022-10-26T00:59:02;12.30;99.90
31991;DHT22;18508;49.386;8.370;2022-10-26T01:01:34;12.40;99.90
31991;DHT22;18508;49.386;8.370;2022-10-26T01:06:38;12.70;99.90
31991;DHT22;18508;49.386;8.370;2022-10-26T01:09:10;12.40;99.90
31991;DHT22;18508;49.386;8.370;2022-10-26T01:11:58;12.40;99.90
31991;DHT22;18508;49.386;8.370;2022-10-26T01:17:51;12.90;99.90
31991;DHT22;18508;49.386;8.370;2022-10-26T01:23:35;12.50;99.90
31991;DHT22;18508;49.386;8.370;2022-10-26T01:26:38;12.50;99.90
31991;DHT22;18508;49.386;8.370;2022-10-26T01:29:44;12.80;99.90
31991;DHT22;18508;49.386;8.370;2022-10-26T01:35:38;12.40;99.90
31991;DHT22;18508;49.386;8.370;2022-10-26T01:38:23;12.50;99.90
31991;DHT22;18508;49.386;8.370;2022-10-26T01:41:07;12.50;99.90
31991;DHT22;18508;49.386;8.370;2022-10-26T01:43:49;12.50;99.90
31991;DHT22;18508;49.386;8.370;2022-10-26T01:46:29;12.50;99.90
31991;DHT22;18508;49.386;8.370;2022-10-26T01:49:07;12.30;99.90
31991;DHT22;18508;49.386;8.370;2022-10-26T01:51:46;12.50;99.90
31991;DHT22;18508;49.386;8.370;2022-10-26T01:54:22;12.50;99.90
31991;DHT22;18508;49.386;8.370;2022-10-26T01:56:56;13.00;99.90
31991;DHT22;18508;49.386;8.370;2022-10-26T01:59:57;12.50;99.90
31991;DHT22;18508;49.386;8.370;2022-10-26T02:03:02;12.50;99.90
31991;DHT22;18508;49.386;8.370;2022-10-26T02:05:51;12.50;99.90
31991;DHT22;18508;49.386;8.370;2022-10-26T02:08:48;12.50;99.90
31991;DHT22;18508;49.386;8.370;2022-10-26T02:11:41;12.90;99.90
31991;DHT22;18508;49.386;8.370;2022-10-26T02:14:19;13.60;99.90
31991;DHT22;18508;49.386;8.370;2022-10-26T02:17:00;12.70;99.90
31991;DHT22;18508;49.386;8.370;2022-10-26T02:19:51;12.60;99.90
31991;DHT22;18508;49.386;8.370;2022-10-26T02:22:25;12.80;99.90
31991;DHT22;18508;49.386;8.370;2022-10-26T02:25:21;12.50;99.90
31991;DHT22;18508;49.386;8.370;2022-10-26T02:28:11;12.50;99.90
31991;DHT22;18508;49.386;8.370;2022-10-26T02:30:59;12.70;99.90
31991;DHT22;18508;49.386;8.370;2022-10-26T02:33:35;12.40;99.90
31991;DHT22;18508;49.386;8.370;2022-10-26T02:36:13;12.50;99.90
31991;DHT22;18508;49.386;8.370;2022-10-26T02:38:45;12.50;99.90
31991;DHT22;18508;49.386;8.370;2022-10-26T02:41:21;12.60;99.90
31991;DHT22;18508;49.386;8.370;2022-10-26T02:44:06;12.50;99.90
31991;DHT22;18508;49.386;8.370;2022-10-26T02:46:44;12.20;99.90
31991;DHT22;18508;49.386;8.370;2022-10-26T02:49:22;12.00;99.90
31991;DHT22;18508;49.386;8.370;2022-10-26T02:52:03;11.80;99.90
31991;DHT22;18508;49.386;8.370;2022-10-26T02:54:49;12.50;99.90
31991;DHT22;18508;49.386;8.370;2022-10-26T02:57:34;12.50;99.90
31991;DHT22;18508;49.386;8.370;2022-10-26T03:00:20;12.00;99.90
31991;DHT22;18508;49.386;8.370;2022-10-26T03:02:56;12.50;99.90
31991;DHT22;18508;49.386;8.370;2022-10-26T03:05:42;12.80;99.90
31991;DHT22;18508;49.386;8.370;2022-10-26T03:08:17;12.70;99.90
31991;DHT22;18508;49.386;8.370;2022-10-26T03:13:21;12.50;99.90
31991;DHT22;18508;49.386;8.370;2022-10-26T03:15:56;12.50;99.90
31991;DHT22;18508;49.386;8.370;2022-10-26T03:18:31;12.30;99.90
31991;DHT22;18508;49.386;8.370;2022-10-26T03:21:02;12.30;99.90
31991;DHT22;18508;49.386;8.370;2022-10-26T03:23:41;12.30;99.90
31991;DHT22;18508;49.386;8.370;2022-10-26T03:26:15;12.40;99.90
31991;DHT22;18508;49.386;8.370;2022-10-26T03:28:51;12.40;99.90
31991;DHT22;18508;49.386;8.370;2022-10-26T03:31:25;12.80;99.90
31991;DHT22;18508;49.386;8.370;2022-10-26T03:33:56;12.50;99.90
31991;DHT22;18508;49.386;8.370;2022-10-26T03:36:30;12.20;99.90
31991;DHT22;18508;49.386;8.370;2022-10-26T03:39:04;12.50;99.90
31991;DHT22;18508;49.386;8.370;2022-10-26T03:41:33;12.50;99.90
31991;DHT22;18508;49.386;8.370;2022-10-26T03:44:14;12.60;99.90
31991;DHT22;18508;49.386;8.370;2022-10-26T03:46:58;12.60;99.90
31991;DHT22;18508;49.386;8.370;2022-10-26T03:49:33;12.60;99.90
31991;DHT22;18508;49.386;8.370;2022-10-26T03:52:05;12.70;99.90
31991;DHT22;18508;49.386;8.370;2022-10-26T03:54:37;12.40;99.90
31991;DHT22;18508;49.386;8.370;2022-10-26T03:57:09;12.50;99.90
31991;DHT22;18508;49.386;8.370;2022-10-26T03:59:44;12.60;99.90
31991;DHT22;18508;49.386;8.370;2022-10-26T04:02:17;12.40;99.90
31991;DHT22;18508;49.386;8.370;2022-10-26T04:04:47;12.60;99.90
31991;DHT22;18508;49.386;8.370;2022-10-26T04:07:17;12.50;99.90
31991;DHT22;18508;49.386;8.370;2022-10-26T04:09:47;14.00;99.90
31991;DHT22;18508;49.386;8.370;2022-10-26T04:12:23;12.50;99.90
31991;DHT22;18508;49.386;8.370;2022-10-26T04:15:01;12.40;99.90
31991;DHT22;18508;49.386;8.370;2022-10-26T04:17:36;12.50;99.90
31991;DHT22;18508;49.386;8.370;2022-10-26T04:20:07;12.50;99.90
31991;DHT22;18508;49.386;8.370;2022-10-26T04:22:40;12.50;99.90
31991;DHT22;18508;49.386;8.370;2022-10-26T04:25:12;12.50;99.90
31991;DHT22;18508;49.386;8.370;2022-10-26T04:27:43;12.40;99.90
31991;DHT22;18508;49.386;8.370;2022-10-26T04:30:32;12.50;99.90
31991;DHT22;18508;49.386;8.370;2022-10-26T04:33:10;12.60;99.90
31991;DHT22;18508;49.386;8.370;2022-10-26T04:35:48;12.50;99.90
31991;DHT22;18508;49.386;8.370;2022-10-26T04:38:25;13.00;99.90
31991;DHT22;18508;49.386;8.370;2022-10-26T04:40:58;12.40;99.90
31991;DHT22;18508;49.386;8.370;2022-10-26T04:43:35;12.90;99.90
31991;DHT22;18508;49.386;8.370;2022-10-26T04:46:11;12.40;99.90
31991;DHT22;18508;49.386;8.370;2022-10-26T04:48:48;12.50;99.90
31991;DHT22;18508;49.386;8.370;2022-10-26T04:51:19;12.50;99.90
31991;DHT22;18508;49.386;8.370;2022-10-26T04:53:48;12.80;99.90
31991;DHT22;18508;49.386;8.370;2022-10-26T04:56:20;12.50;99.90
31991;DHT22;18508;49.386;8.370;2022-10-26T04:58:53;12.70;99.90
31991;DHT22;18508;49.386;8.370;2022-10-26T05:01:32;12.90;99.90
31991;DHT22;18508;49.386;8.370;2022-10-26T05:04:11;12.60;99.90
31991;DHT22;18508;49.386;8.370;2022-10-26T05:06:57;12.10;99.90
31991;DHT22;18508;49.386;8.370;2022-10-26T05:09:37;12.60;99.90
31991;DHT22;18508;49.386;8.370;2022-10-26T05:12:10;12.60;99.90
31991;DHT22;18508;49.386;8.370;2022-10-26T05:14:47;12.60;99.90
31991;DHT22;18508;49.386;8.370;2022-10-26T05:17:19;12.50;99.90
31991;DHT22;18508;49.386;8.370;2022-10-26T05:19:56;12.60;99.90
31991;DHT22;18508;49.386;8.370;2022-10-26T05:22:52;12.60;99.90
31991;DHT22;18508;49.386;8.370;2022-10-26T05:25:28;12.60;99.90
31991;DHT22;18508;49.386;8.370;2022-10-26T05:28:04;12.70;99.90
31991;DHT22;18508;49.386;8.370;2022-10-26T05:30:45;12.60;99.90
31991;DHT22;18508;49.386;8.370;2022-10-26T05:33:26;12.40;99.90
31991;DHT22;18508;49.386;8.370;2022-10-26T05:36:00;12.60;99.90
31991;DHT22;18508;49.386;8.370;2022-10-26T05:38:36;12.60;99.90
31991;DHT22;18508;49.386;8.370;2022-10-26T05:41:06;12.90;99.90
31991;DHT22;18508;49.386;8.370;2022-10-26T05:46:05;12.70;99.90
31991;DHT22;18508;49.386;8.370;2022-10-26T05:48:36;12.70;99.90
31991;DHT22;18508;49.386;8.370;2022-10-26T05:51:06;12.70;99.90
31991;DHT22;18508;49.386;8.370;2022-10-26T05:53:50;12.80;99.90
31991;DHT22;18508;49.386;8.370;2022-10-26T05:56:30;12.70;99.90
31991;DHT22;18508;49.386;8.370;2022-10-26T05:59:02;12.80;99.90
31991;DHT22;18508;49.386;8.370;2022-10-26T06:01:42;12.40;99.90
31991;DHT22;18508;49.386;8.370;2022-10-26T06:04:31;12.60;99.90
31991;DHT22;18508;49.386;8.370;2022-10-26T06:07:18;12.70;99.90
31991;DHT22;18508;49.386;8.370;2022-10-26T06:10:08;13.10;99.90
31991;DHT22;18508;49.386;8.370;2022-10-26T06:12:46;13.00;99.90
31991;DHT22;18508;49.386;8.370;2022-10-26T06:15:24;12.70;99.90
31991;DHT22;18508;49.386;8.370;2022-10-26T06:18:01;13.30;99.90
31991;DHT22;18508;49.386;8.370;2022-10-26T06:20:59;13.00;99.90
31991;DHT22;18508;49.386;8.370;2022-10-26T06:23:45;12.90;99.90
31991;DHT22;18508;49.386;8.370;2022-10-26T06:26:28;13.00;99.90
31991;DHT22;18508;49.386;8.370;2022-10-26T06:29:08;13.30;99.90
31991;DHT22;18508;49.386;8.370;2022-10-26T06:31:40;13.00;99.90
31991;DHT22;18508;49.386;8.370;2022-10-26T06:34:21;12.90;99.90
31991;DHT22;18508;49.386;8.370;2022-10-26T06:36:55;13.00;99.90
31991;DHT22;18508;49.386;8.370;2022-10-26T06:39:29;13.10;99.90
31991;DHT22;18508;49.386;8.370;2022-10-26T06:41:59;13.10;99.90
31991;DHT22;18508;49.386;8.370;2022-10-26T06:44:31;12.70;99.90
31991;DHT22;18508;49.386;8.370;2022-10-26T06:47:09;13.20;99.90
31991;DHT22;18508;49.386;8.370;2022-10-26T06:50:00;13.20;99.90
31991;DHT22;18508;49.386;8.370;2022-10-26T06:52:39;13.20;99.90
31991;DHT22;18508;49.386;8.370;2022-10-26T06:55:13;13.30;99.90
31991;DHT22;18508;49.386;8.370;2022-10-26T06:57:47;13.40;99.90
31991;DHT22;18508;49.386;8.370;2022-10-26T07:00:21;13.40;99.90
31991;DHT22;18508;49.386;8.370;2022-10-26T07:03:03;13.40;99.90
31991;DHT22;18508;49.386;8.370;2022-10-26T07:05:32;12.90;99.90
31991;DHT22;18508;49.386;8.370;2022-10-26T07:08:05;13.40;99.90
31991;DHT22;18508;49.386;8.370;2022-10-26T07:10:37;13.50;99.90
31991;DHT22;18508;49.386;8.370;2022-10-26T07:13:11;13.60;99.90
31991;DHT22;18508;49.386;8.370;2022-10-26T07:15:44;13.60;99.90
31991;DHT22;18508;49.386;8.370;2022-10-26T07:18:18;13.80;99.90
31991;DHT22;18508;49.386;8.370;2022-10-26T07:20:50;13.70;99.90
31991;DHT22;18508;49.386;8.370;2022-10-26T07:23:21;13.80;99.90
31991;DHT22;18508;49.386;8.370;2022-10-26T07:25:52;13.90;99.90
31991;DHT22;18508;49.386;8.370;2022-10-26T07:30:49;14.10;99.90
31991;DHT22;18508;49.386;8.370;2022-10-26T07:33:22;14.00;99.90
31991;DHT22;18508;49.386;8.370;2022-10-26T07:35:50;13.70;99.90
31991;DHT22;18508;49.386;8.370;2022-10-26T07:38:22;14.10;99.90
31991;DHT22;18508;49.386;8.370;2022-10-26T07:40:54;14.10;99.90
31991;DHT22;18508;49.386;8.370;2022-10-26T07:43:24;13.80;99.90
31991;DHT22;18508;49.386;8.370;2022-10-26T07:45:53;14.20;99.90
31991;DHT22;18508;49.386;8.370;2022-10-26T07:48:29;14.10;99.90
31991;DHT22;18508;49.386;8.370;2022-10-26T07:51:04;14.10;99.90
31991;DHT22;18508;49.386;8.370;2022-10-26T07:53:46;14.20;99.90
31991;DHT22;18508;49.386;8.370;2022-10-26T07:56:23;14.20;99.90
31991;DHT22;18508;49.386;8.370;2022-10-26T07:58:53;14.20;99.90
31991;DHT22;18508;49.386;8.370;2022-10-26T08:01:22;14.20;99.90
31991;DHT22;18508;49.386;8.370;2022-10-26T08:03:51;14.30;99.90
31991;DHT22;18508;49.386;8.370;2022-10-26T08:06:23;14.20;99.90
31991;DHT22;18508;49.386;8.370;2022-10-26T08:09:01;14.40;99.90
31991;DHT22;18508;49.386;8.370;2022-10-26T08:11:41;14.40;99.90
31991;DHT22;18508;49.386;8.370;2022-10-26T08:14:10;14.50;99.90
31991;DHT22;18508;49.386;8.370;2022-10-26T08:16:41;14.50;99.90
31991;DHT22;18508;49.386;8.370;2022-10-26T08:19:19;14.40;99.90
31991;DHT22;18508;49.386;8.370;2022-10-26T08:21:54;14.40;99.90
31991;DHT22;18508;49.386;8.370;2022-10-26T08:24:29;14.50;99.90
31991;DHT22;18508;49.386;8.370;2022-10-26T08:26:59;14.60;99.90
31991;DHT22;18508;49.386;8.370;2022-10-26T08:29:28;14.80;99.90
31991;DHT22;18508;49.386;8.370;2022-10-26T08:31:58;14.30;99.90
31991;DHT22;18508;49.386;8.370;2022-10-26T08:34:33;14.80;99.90
31991;DHT22;18508;49.386;8.370;2022-10-26T08:37:07;14.90;99.90
31991;DHT22;18508;49.386;8.370;2022-10-26T08:39:44;15.10;99.90
31991;DHT22;18508;49.386;8.370;2022-10-26T08:42:21;15.20;99.90
31991;DHT22;18508;49.386;8.370;2022-10-26T08:45:00;15.40;99.90
31991;DHT22;18508;49.386;8.370;2022-10-26T08:47:36;15.60;99.90
31991;DHT22;18508;49.386;8.370;2022-10-26T08:50:21;16.00;99.90
31991;DHT22;18508;49.386;8.370;2022-10-26T08:52:57;15.90;99.90
31991;DHT22;18508;49.386;8.370;2022-10-26T08:55:38;15.80;99.90
31991;DHT22;18508;49.386;8.370;2022-10-26T08:58:15;16.20;99.90
31991;DHT22;18508;49.386;8.370;2022-10-26T09:00:50;16.30;99.90
31991;DHT22;18508;49.386;8.370;2022-10-26T09:03:20;16.40;99.90
31991;DHT22;18508;49.386;8.370;2022-10-26T09:05:59;16.50;99.90
31991;DHT22;18508;49.386;8.370;2022-10-26T09:08:40;16.50;99.90
31991;DHT22;18508;49.386;8.370;2022-10-26T09:11:33;16.60;99.90
31991;DHT22;18508;49.386;8.370;2022-10-26T09:14:14;16.60;99.90
31991;DHT22;18508;49.386;8.370;2022-10-26T09:16:53;16.70;99.90
31991;DHT22;18508;49.386;8.370;2022-10-26T09:19:36;16.70;99.90
31991;DHT22;18508;49.386;8.370;2022-10-26T09:22:14;16.70;99.90
31991;DHT22;18508;49.386;8.370;2022-10-26T09:24:49;16.50;99.90
31991;DHT22;18508;49.386;8.370;2022-10-26T09:27:27;16.50;99.90
31991;DHT22;18508;49.386;8.370;2022-10-26T09:29:59;16.80;99.90
31991;DHT22;18508;49.386;8.370;2022-10-26T09:32:35;16.60;99.90
31991;DHT22;18508;49.386;8.370;2022-10-26T09:35:13;17.00;99.90
31991;DHT22;18508;49.386;8.370;2022-10-26T09:37:49;17.40;99.90
31991;DHT22;18508;49.386;8.370;2022-10-26T09:40:24;17.50;99.90
31991;DHT22;18508;49.386;8.370;2022-10-26T09:43:06;17.30;99.90
31991;DHT22;18508;49.386;8.370;2022-10-26T09:45:44;18.20;99.90
31991;DHT22;18508;49.386;8.370;2022-10-26T09:48:28;17.80;99.90
31991;DHT22;18508;49.386;8.370;2022-10-26T09:51:01;17.80;99.90
31991;DHT22;18508;49.386;8.370;2022-10-26T09:53:45;17.90;99.90
31991;DHT22;18508;49.386;8.370;2022-10-26T09:56:14;18.10;99.90
31991;DHT22;18508;49.386;8.370;2022-10-26T09:58:53;18.40;99.90
31991;DHT22;18508;49.386;8.370;2022-10-26T10:01:29;18.40;99.90
31991;DHT22;18508;49.386;8.370;2022-10-26T10:04:18;17.90;99.90
31991;DHT22;18508;49.386;8.370;2022-10-26T10:07:12;18.60;99.90
31991;DHT22;18508;49.386;8.370;2022-10-26T10:09:41;18.60;99.90
31991;DHT22;18508;49.386;8.370;2022-10-26T10:12:19;18.70;99.90
31991;DHT22;18508;49.386;8.370;2022-10-26T10:14:57;19.00;99.90
31991;DHT22;18508;49.386;8.370;2022-10-26T10:17:27;19.00;99.90
31991;DHT22;18508;49.386;8.370;2022-10-26T10:20:06;19.00;99.90
31991;DHT22;18508;49.386;8.370;2022-10-26T10:22:55;19.20;99.90
31991;DHT22;18508;49.386;8.370;2022-10-26T10:25:33;19.30;99.90
31991;DHT22;18508;49.386;8.370;2022-10-26T10:28:19;19.40;99.90
31991;DHT22;18508;49.386;8.370;2022-10-26T10:30:53;19.60;99.90
31991;DHT22;18508;49.386;8.370;2022-10-26T10:33:36;19.60;99.90
31991;DHT22;18508;49.386;8.370;2022-10-26T10:36:09;19.70;99.90
31991;DHT22;18508;49.386;8.370;2022-10-26T10:38:46;19.70;99.90
31991;DHT22;18508;49.386;8.370;2022-10-26T10:41:19;19.70;99.90
31991;DHT22;18508;49.386;8.370;2022-10-26T10:43:52;19.70;99.90
31991;DHT22;18508;49.386;8.370;2022-10-26T10:46:25;19.60;99.90
31991;DHT22;18508;49.386;8.370;2022-10-26T10:49:00;19.50;99.90
31991;DHT22;18508;49.386;8.370;2022-10-26T10:51:37;19.90;99.90
31991;DHT22;18508;49.386;8.370;2022-10-26T10:54:20;19.50;99.90
31991;DHT22;18508;49.386;8.370;2022-10-26T10:56:53;19.60;99.90
31991;DHT22;18508;49.386;8.370;2022-10-26T10:59:43;19.80;99.90
31991;DHT22;18508;49.386;8.370;2022-10-26T11:05:32;19.50;99.90
31991;DHT22;18508;49.386;8.370;2022-10-26T11:08:07;20.20;99.90
31991;DHT22;18508;49.386;8.370;2022-10-26T11:10:39;19.70;99.90
31991;DHT22;18508;49.386;8.370;2022-10-26T11:13:18;19.80;99.90
31991;DHT22;18508;49.386;8.370;2022-10-26T11:15:55;19.80;99.90
31991;DHT22;18508;49.386;8.370;2022-10-26T11:18:30;19.80;99.90
31991;DHT22;18508;49.386;8.370;2022-10-26T11:21:03;20.00;99.90
31991;DHT22;18508;49.386;8.370;2022-10-26T11:23:39;20.00;99.90
31991;DHT22;18508;49.386;8.370;2022-10-26T11:26:12;20.10;99.90
31991;DHT22;18508;49.386;8.370;2022-10-26T11:28:48;20.10;99.90
31991;DHT22;18508;49.386;8.370;2022-10-26T11:31:22;20.60;99.90
31991;DHT22;18508;49.386;8.370;2022-10-26T11:34:09;20.20;99.90
31991;DHT22;18508;49.386;8.370;2022-10-26T11:36:45;20.40;99.90
31991;DHT22;18508;49.386;8.370;2022-10-26T11:39:24;19.80;99.90
31991;DHT22;18508;49.386;8.370;2022-10-26T11:42:02;19.60;99.90
31991;DHT22;18508;49.386;8.370;2022-10-26T11:44:40;20.20;99.90
31991;DHT22;18508;49.386;8.370;2022-10-26T11:47:18;20.20;99.90
31991;DHT22;18508;49.386;8.370;2022-10-26T11:49:59;20.70;99.90
31991;DHT22;18508;49.386;8.370;2022-10-26T11:52:46;20.40;99.90
31991;DHT22;18508;49.386;8.370;2022-10-26T11:55:25;20.60;99.90
31991;DHT22;18508;49.386;8.370;2022-10-26T11:57:57;20.70;99.90
31991;DHT22;18508;49.386;8.370;2022-10-26T12:00:31;20.90;99.90
31991;DHT22;18508;49.386;8.370;2022-10-26T12:03:12;20.80;99.90
31991;DHT22;18508;49.386;8.370;2022-10-26T12:05:48;21.10;99.90
31991;DHT22;18508;49.386;8.370;2022-10-26T12:08:30;21.20;99.90
31991;DHT22;18508;49.386;8.370;2022-10-26T12:11:06;21.70;99.90
31991;DHT22;18508;49.386;8.370;2022-10-26T12:13:44;21.60;99.90
31991;DHT22;18508;49.386;8.370;2022-10-26T12:16:32;22.00;66.70
31991;DHT22;18508;49.386;8.370;2022-10-26T12:19:06;22.10;59.30
31991;DHT22;18508;49.386;8.370;2022-10-26T12:21:38;21.80;57.30
31991;DHT22;18508;49.386;8.370;2022-10-26T12:24:29;22.20;43.40
31991;DHT22;18508;49.386;8.370;2022-10-26T12:27:03;22.20;50.40
31991;DHT22;18508;49.386;8.370;2022-10-26T12:29:46;22.40;48.60
31991;DHT22;18508;49.386;8.370;2022-10-26T12:32:52;22.20;57.20
31991;DHT22;18508;49.386;8.370;2022-10-26T12:35:37;22.40;40.80
31991;DHT22;18508;49.386;8.370;2022-10-26T12:41:31;22.10;44.40
31991;DHT22;18508;49.386;8.370;2022-10-26T12:44:32;22.20;54.30
31991;DHT22;18508;49.386;8.370;2022-10-26T12:47:04;22.10;51.10
31991;DHT22;18508;49.386;8.370;2022-10-26T12:50:00;22.30;67.00
31991;DHT22;18508;49.386;8.370;2022-10-26T12:52:43;21.90;59.00
31991;DHT22;18508;49.386;8.370;2022-10-26T12:55:41;22.60;58.00
31991;DHT22;18508;49.386;8.370;2022-10-26T12:58:56;22.10;49.50
31991;DHT22;18508;49.386;8.370;2022-10-26T13:02:05;22.10;44.90
31991;DHT22;18508;49.386;8.370;2022-10-26T13:08:06;21.90;58.90
31991;DHT22;18508;49.386;8.370;2022-10-26T13:10:43;21.40;66.00
31991;DHT22;18508;49.386;8.370;2022-10-26T13:13:21;21.80;58.00
31991;DHT22;18508;49.386;8.370;2022-10-26T13:15:58;22.00;57.50
31991;DHT22;18508;49.386;8.370;2022-10-26T13:18:35;21.80;52.90
31991;DHT22;18508;49.386;8.370;2022-10-26T13:21:11;21.80;63.60
31991;DHT22;18508;49.386;8.370;2022-10-26T13:23:43;21.70;53.80
31991;DHT22;18508;49.386;8.370;2022-10-26T13:26:17;21.90;57.20
31991;DHT22;18508;49.386;8.370;2022-10-26T13:28:50;21.80;49.40
31991;DHT22;18508;49.386;8.370;2022-10-26T13:31:54;21.90;58.70
31991;DHT22;18508;49.386;8.370;2022-10-26T13:34:32;21.10;55.70
31991;DHT22;18508;49.386;8.370;2022-10-26T13:37:20;21.50;52.10
31991;DHT22;18508;49.386;8.370;2022-10-26T13:39:53;21.50;41.70
31991;DHT22;18508;49.386;8.370;2022-10-26T13:42:26;21.50;54.20
31991;DHT22;18508;49.386;8.370;2022-10-26T13:45:12;21.60;62.60
31991;DHT22;18508;49.386;8.370;2022-10-26T13:47:49;21.80;49.20
31991;DHT22;18508;49.386;8.370;2022-10-26T13:50:32;21.70;35.50
31991;DHT22;18508;49.386;8.370;2022-10-26T13:53:11;21.60;57.00
31991;DHT22;18508;49.386;8.370;2022-10-26T13:55:52;21.60;49.30
31991;DHT22;18508;49.386;8.370;2022-10-26T13:58:27;21.50;49.00
31991;DHT22;18508;49.386;8.370;2022-10-26T14:01:10;21.40;53.70
31991;DHT22;18508;49.386;8.370;2022-10-26T14:03:44;21.40;65.60
31991;DHT22;18508;49.386;8.370;2022-10-26T14:06:23;20.40;67.10
31991;DHT22;18508;49.386;8.370;2022-10-26T14:08:55;21.40;70.00
31991;DHT22;18508;49.386;8.370;2022-10-26T14:11:35;21.50;67.50
31991;DHT22;18508;49.386;8.370;2022-10-26T14:14:20;21.90;70.40
31991;DHT22;18508;49.386;8.370;2022-10-26T14:16:52;21.50;62.20
31991;DHT22;18508;49.386;8.370;2022-10-26T14:19:38;22.30;65.20
31991;DHT22;18508;49.386;8.370;2022-10-26T14:22:25;21.40;73.10
31991;DHT22;18508;49.386;8.370;2022-10-26T14:25:02;21.20;83.60
31991;DHT22;18508;49.386;8.370;2022-10-26T14:27:38;21.30;86.90
31991;DHT22;18508;49.386;8.370;2022-10-26T14:30:42;21.20;79.80
31991;DHT22;18508;49.386;8.370;2022-10-26T14:33:22;20.80;97.30
31991;DHT22;18508;49.386;8.370;2022-10-26T14:36:08;21.10;90.40
31991;DHT22;18508;49.386;8.370;2022-10-26T14:38:43;21.20;79.50
31991;DHT22;18508;49.386;8.370;2022-10-26T14:41:21;21.10;87.20
31991;DHT22;18508;49.386;8.370;2022-10-26T14:43:55;21.10;85.10
31991;DHT22;18508;49.386;8.370;2022-10-26T14:46:26;21.20;95.00
31991;DHT22;18508;49.386;8.370;2022-10-26T14:49:02;21.20;96.90
31991;DHT22;18508;49.386;8.370;2022-10-26T14:51:43;21.10;99.90
31991;DHT22;18508;49.386;8.370;2022-10-26T14:54:23;21.20;98.80
31991;DHT22;18508;49.386;8.370;2022-10-26T14:57:24;21.60;99.90
31991;DHT22;18508;49.386;8.370;2022-10-26T15:00:00;21.20;99.90
31991;DHT22;18508;49.386;8.370;2022-10-26T15:02:33;21.00;99.10
31991;DHT22;18508;49.386;8.370;2022-10-26T15:05:18;20.90;99.90
31991;DHT22;18508;49.386;8.370;2022-10-26T15:07:51;20.20;99.90
31991;DHT22;18508;49.386;8.370;2022-10-26T15:10:46;21.20;99.90
31991;DHT22;18508;49.386;8.370;2022-10-26T15:13:33;21.00;99.90
31991;DHT22;18508;49.386;8.370;2022-10-26T15:16:19;21.00;99.90
31991;DHT22;18508;49.386;8.370;2022-10-26T15:18:58;21.60;95.30
31991;DHT22;18508;49.386;8.370;2022-10-26T15:21:33;21.70;90.20
31991;DHT22;18508;49.386;8.370;2022-10-26T15:24:27;21.80;56.40
31991;DHT22;18508;49.386;8.370;2022-10-26T15:27:02;21.70;65.60
31991;DHT22;18508;49.386;8.370;2022-10-26T15:29:41;21.50;85.10
31991;DHT22;18508;49.386;8.370;2022-10-26T15:32:26;21.20;99.90
31991;DHT22;18508;49.386;8.370;2022-10-26T15:35:15;21.00;99.90
31991;DHT22;18508;49.386;8.370;2022-10-26T15:37:48;20.90;99.90
31991;DHT22;18508;49.386;8.370;2022-10-26T15:40:22;20.70;99.90
31991;DHT22;18508;49.386;8.370;2022-10-26T15:42:59;20.60;99.90
31991;DHT22;18508;49.386;8.370;2022-10-26T15:45:30;20.40;99.90
31991;DHT22;18508;49.386;8.370;2022-10-26T15:48:18;21.00;99.90
31991;DHT22;18508;49.386;8.370;2022-10-26T15:50:47;20.00;99.90
31991;DHT22;18508;49.386;8.370;2022-10-26T15:53:19;19.90;99.90
31991;DHT22;18508;49.386;8.370;2022-10-26T15:55:51;19.80;99.90
31991;DHT22;18508;49.386;8.370;2022-10-26T15:58:20;19.60;99.90
31991;DHT22;18508;49.386;8.370;2022-10-26T16:00:49;19.60;99.90
31991;DHT22;18508;49.386;8.370;2022-10-26T16:03:19;19.30;99.90
31991;DHT22;18508;49.386;8.370;2022-10-26T16:05:54;19.30;99.90
31991;DHT22;18508;49.386;8.370;2022-10-26T16:08:25;19.00;99.90
31991;DHT22;18508;49.386;8.370;2022-10-26T16:10:58;19.00;99.90
31991;DHT22;18508;49.386;8.370;2022-10-26T16:13:29;18.90;99.90
31991;DHT22;18508;49.386;8.370;2022-10-26T16:15:57;18.60;99.90
31991;DHT22;18508;49.386;8.370;2022-10-26T16:18:26;18.60;99.90
31991;DHT22;18508;49.386;8.370;2022-10-26T16:20:56;18.60;99.90
31991;DHT22;18508;49.386;8.370;2022-10-26T16:23:26;18.40;99.90
31991;DHT22;18508;49.386;8.370;2022-10-26T16:25:54;18.40;99.90
31991;DHT22;18508;49.386;8.370;2022-10-26T16:28:24;18.30;99.90
31991;DHT22;18508;49.386;8.370;2022-10-26T16:30:58;18.10;99.90
31991;DHT22;18508;49.386;8.370;2022-10-26T16:33:28;18.00;99.90
31991;DHT22;18508;49.386;8.370;2022-10-26T16:36:05;17.90;99.90
31991;DHT22;18508;49.386;8.370;2022-10-26T16:38:36;17.80;99.90
31991;DHT22;18508;49.386;8.370;2022-10-26T16:41:07;18.10;99.90
31991;DHT22;18508;49.386;8.370;2022-10-26T16:43:41;17.60;99.90
31991;DHT22;18508;49.386;8.370;2022-10-26T16:46:11;17.50;99.90
31991;DHT22;18508;49.386;8.370;2022-10-26T16:48:42;17.50;99.90
31991;DHT22;18508;49.386;8.370;2022-10-26T16:51:13;17.40;99.90
31991;DHT22;18508;49.386;8.370;2022-10-26T16:53:46;17.30;99.90
31991;DHT22;18508;49.386;8.370;2022-10-26T16:56:18;17.20;99.90
31991;DHT22;18508;49.386;8.370;2022-10-26T16:58:49;17.20;99.90
31991;DHT22;18508;49.386;8.370;2022-10-26T17:01:19;17.10;99.90
31991;DHT22;18508;49.386;8.370;2022-10-26T17:03:51;16.60;99.90
31991;DHT22;18508;49.386;8.370;2022-10-26T17:06:20;17.00;99.90
31991;DHT22;18508;49.386;8.370;2022-10-26T17:08:49;17.10;99.90